Time;durP1;ratioP1;P1;durP2;ratioP2;P2;SDS_P1;SDS_P2;PMS_P1;PMS_P2;Temp;Humidity;BMP_temperature;BMP_pressure;BME280_temperature;BME280_humidity;BME280_pressure;Samples;Min_cycle;Max_cycle;Signal;HPM_P1;HPM_P2
2023/12/15 00:01:04;;;;;;;8.10;6.40;;;6.80;99.90;;;;;;5113501;28;20700;-71
2023/12/15 00:03:30;;;;;;;7.00;5.33;;;6.70;99.90;;;;;;5113537;28;20190;-70
2023/12/15 00:05:57;;;;;;;9.70;7.43;;;6.70;99.90;;;;;;5113458;28;20163;-71
2023/12/15 00:08:23;;;;;;;11.20;7.23;;;6.70;99.90;;;;;;5113509;28;20163;-71
2023/12/15 00:10:49;;;;;;;8.10;6.27;;;6.70;99.90;;;;;;5113416;28;20496;-71
2023/12/15 00:13:14;;;;;;;9.53;7.77;;;6.70;99.90;;;;;;5113383;28;20902;-71
2023/12/15 00:15:40;;;;;;;8.37;6.20;;;6.60;99.90;;;;;;5113345;28;20670;-71
2023/12/15 00:18:05;;;;;;;10.43;7.27;;;6.60;99.90;;;;;;5113323;28;20166;-72
2023/12/15 00:20:31;;;;;;;9.10;6.93;;;6.60;99.90;;;;;;5112902;28;20191;-72
2023/12/15 00:22:56;;;;;;;6.90;5.30;;;6.60;99.90;;;;;;5113853;28;20224;-71
2023/12/15 00:25:22;;;;;;;7.53;6.20;;;6.40;99.90;;;;;;5113586;28;20170;-71
2023/12/15 00:27:48;;;;;;;8.07;5.37;;;6.40;99.90;;;;;;5113220;28;20255;-70
2023/12/15 00:30:14;;;;;;;6.57;5.63;;;6.30;99.90;;;;;;5113390;28;20172;-71
2023/12/15 00:32:40;;;;;;;5.80;4.50;;;6.40;99.90;;;;;;5113351;28;20462;-72
2023/12/15 00:35:07;;;;;;;5.40;4.63;;;6.40;99.90;;;;;;5113233;28;20407;-72
2023/12/15 00:37:32;;;;;;;6.57;5.03;;;6.30;99.90;;;;;;5113178;28;20175;-71
2023/12/15 00:39:58;;;;;;;6.73;5.03;;;6.40;99.90;;;;;;5103492;28;20444;-72
2023/12/15 00:42:23;;;;;;;7.27;5.43;;;6.40;99.90;;;;;;5092739;28;20205;-72
2023/12/15 00:44:49;;;;;;;8.47;5.93;;;6.30;99.90;;;;;;5092870;28;20168;-72
2023/12/15 00:47:14;;;;;;;8.90;6.27;;;6.10;99.90;;;;;;5092897;28;20175;-72
2023/12/15 00:49:40;;;;;;;6.97;5.53;;;6.10;99.90;;;;;;5098773;28;20173;-72
2023/12/15 00:52:06;;;;;;;9.87;5.80;;;6.20;99.90;;;;;;5113508;28;20271;-73
2023/12/15 00:54:32;;;;;;;12.10;6.87;;;6.10;99.90;;;;;;5113180;28;20457;-72
2023/12/15 00:56:57;;;;;;;8.00;6.10;;;6.00;99.90;;;;;;5113111;28;20175;-72
2023/12/15 00:59:23;;;;;;;6.63;5.20;;;6.00;99.90;;;;;;5113088;28;20191;-73
2023/12/15 01:01:48;;;;;;;6.50;5.50;;;6.10;99.90;;;;;;5113413;28;20182;-72
2023/12/15 01:04:14;;;;;;;6.23;4.93;;;6.20;99.90;;;;;;5112995;28;20164;-72
2023/12/15 01:06:40;;;;;;;6.47;5.30;;;6.20;99.90;;;;;;5113192;28;20652;-71
2023/12/15 01:09:05;;;;;;;8.50;5.23;;;6.30;99.90;;;;;;5112458;28;20542;-72
2023/12/15 01:11:31;;;;;;;6.87;5.70;;;6.30;99.90;;;;;;5113192;28;20202;-71
2023/12/15 01:13:57;;;;;;;7.20;4.77;;;6.50;99.90;;;;;;5113117;28;20178;-71
2023/12/15 01:16:22;;;;;;;9.67;5.90;;;6.40;99.90;;;;;;5113182;28;20174;-71
2023/12/15 01:18:48;;;;;;;7.43;5.20;;;6.40;99.90;;;;;;5112930;28;20174;-72
2023/12/15 01:21:13;;;;;;;7.30;5.27;;;6.50;99.90;;;;;;5116390;28;20198;-71
2023/12/15 01:23:39;;;;;;;8.03;5.60;;;6.60;99.90;;;;;;5116760;28;20183;-71
2023/12/15 01:26:04;;;;;;;5.80;4.40;;;6.80;99.90;;;;;;5116420;28;20641;-71
2023/12/15 01:28:30;;;;;;;7.00;5.60;;;6.90;99.90;;;;;;5116660;28;20195;-70
2023/12/15 01:30:56;;;;;;;9.67;6.30;;;7.00;99.90;;;;;;5116221;28;20263;-71
2023/12/15 01:33:21;;;;;;;7.73;6.20;;;6.90;99.90;;;;;;5116868;28;20334;-72
2023/12/15 01:35:47;;;;;;;6.57;5.90;;;6.80;99.90;;;;;;5116235;28;20168;-71
2023/12/15 01:38:13;;;;;;;8.77;5.90;;;6.80;99.90;;;;;;5116555;28;20577;-72
2023/12/15 01:40:38;;;;;;;8.50;6.70;;;6.90;99.90;;;;;;5101552;28;20490;-72
2023/12/15 01:43:08;;;;;;;8.90;6.13;;;6.90;99.90;;;;;;5095639;28;20174;-72
2023/12/15 01:45:34;;;;;;;7.77;6.00;;;7.00;99.90;;;;;;5095897;28;20180;-71
2023/12/15 01:48:00;;;;;;;10.27;7.40;;;6.80;99.90;;;;;;5105186;28;20401;-71
2023/12/15 01:50:25;;;;;;;9.83;7.33;;;6.70;99.90;;;;;;5116070;28;20409;-71
2023/12/15 01:52:51;;;;;;;9.03;7.00;;;6.50;99.90;;;;;;5115898;28;20184;-71
2023/12/15 01:55:16;;;;;;;12.13;8.57;;;6.40;99.90;;;;;;5116118;28;20258;-71
2023/12/15 01:57:43;;;;;;;8.03;6.63;;;6.40;99.90;;;;;;5115788;28;20179;-71
2023/12/15 02:00:09;;;;;;;8.37;7.00;;;6.20;99.90;;;;;;5115708;28;20230;-71
2023/12/15 02:02:35;;;;;;;11.20;7.20;;;6.10;99.90;;;;;;5115746;28;20448;-72
2023/12/15 02:05:02;;;;;;;9.10;6.70;;;6.20;99.90;;;;;;5116198;28;20401;-72
2023/12/15 02:07:28;;;;;;;8.53;6.77;;;6.30;99.90;;;;;;5115638;28;20577;-72
2023/12/15 02:09:54;;;;;;;8.03;5.27;;;6.40;99.90;;;;;;5115459;28;20405;-72
2023/12/15 02:12:20;;;;;;;8.00;6.30;;;6.50;99.90;;;;;;5114360;28;20436;-71
2023/12/15 02:14:46;;;;;;;9.00;7.43;;;6.70;99.90;;;;;;5115504;28;20906;-71
2023/12/15 02:17:12;;;;;;;7.60;6.00;;;6.80;99.90;;;;;;5115444;28;20626;-71
2023/12/15 02:19:37;;;;;;;10.77;6.83;;;6.80;99.90;;;;;;5115261;28;20282;-71
2023/12/15 02:22:03;;;;;;;9.27;7.00;;;6.80;99.90;;;;;;5115252;28;20468;-72
2023/12/15 02:24:29;;;;;;;7.43;6.43;;;6.80;99.90;;;;;;5096957;28;20182;-70
2023/12/15 02:26:55;;;;;;;9.07;6.30;;;6.80;99.90;;;;;;5115222;28;20531;-71
2023/12/15 02:29:21;;;;;;;8.23;6.80;;;6.80;99.90;;;;;;5114816;28;20205;-70
2023/12/15 02:31:46;;;;;;;7.70;6.53;;;6.80;99.90;;;;;;5115008;28;20440;-71
2023/12/15 02:34:12;;;;;;;7.80;6.57;;;6.30;99.90;;;;;;5115120;28;20634;-71
2023/12/15 02:36:37;;;;;;;8.67;6.40;;;6.00;99.90;;;;;;5115039;28;20250;-71
2023/12/15 02:39:03;;;;;;;7.27;5.73;;;6.10;99.90;;;;;;5115141;28;20204;-71
2023/12/15 02:41:30;;;;;;;10.07;7.30;;;6.30;99.90;;;;;;5114768;28;20193;-71
2023/12/15 02:43:56;;;;;;;11.10;7.47;;;6.20;99.90;;;;;;5115193;28;20167;-71
2023/12/15 02:46:21;;;;;;;9.93;7.73;;;6.20;99.90;;;;;;5113648;28;20402;-71
2023/12/15 02:48:47;;;;;;;10.37;6.40;;;6.20;99.90;;;;;;5114696;28;20171;-70
2023/12/15 02:51:27;;;;;;;12.20;8.10;;;6.20;99.90;;;;;;5114538;28;20192;-70
2023/12/15 02:53:53;;;;;;;7.23;6.20;;;6.40;99.90;;;;;;5114641;28;20155;-70
2023/12/15 02:56:19;;;;;;;9.80;7.30;;;6.30;99.90;;;;;;5114604;28;20399;-73
2023/12/15 02:58:44;;;;;;;9.00;7.30;;;6.10;99.90;;;;;;5114792;28;20392;-70
2023/12/15 03:01:10;;;;;;;9.00;6.57;;;6.30;99.90;;;;;;5114422;28;20201;-70
2023/12/15 03:03:36;;;;;;;10.43;7.37;;;6.30;99.90;;;;;;5114459;28;20594;-70
2023/12/15 03:06:02;;;;;;;11.87;7.10;;;6.30;99.90;;;;;;5114149;28;20167;-70
2023/12/15 03:08:28;;;;;;;9.67;6.63;;;6.50;99.90;;;;;;5114324;28;20505;-70
2023/12/15 03:10:57;;;;;;;10.40;7.97;;;6.50;99.90;;;;;;5114261;28;20194;-71
2023/12/15 03:13:28;;;;;;;7.23;6.53;;;6.70;99.90;;;;;;5114498;28;20186;-71
2023/12/15 03:15:54;;;;;;;8.77;6.43;;;6.60;99.90;;;;;;5114548;28;20754;-70
2023/12/15 03:18:19;;;;;;;10.70;7.50;;;6.70;99.90;;;;;;5114411;28;20416;-70
2023/12/15 03:20:45;;;;;;;7.23;6.07;;;6.80;99.90;;;;;;5113979;28;20440;-71
2023/12/15 03:23:11;;;;;;;10.37;7.20;;;6.90;99.90;;;;;;5114083;28;20162;-71
2023/12/15 03:25:36;;;;;;;7.97;6.43;;;6.90;99.90;;;;;;5114034;28;20171;-70
2023/12/15 03:28:02;;;;;;;6.80;6.00;;;6.90;99.90;;;;;;5114237;28;20400;-69
2023/12/15 03:30:28;;;;;;;9.33;7.20;;;6.80;99.90;;;;;;5114160;28;20593;-71
2023/12/15 03:32:53;;;;;;;8.93;6.03;;;6.70;99.90;;;;;;5114083;28;20234;-71
2023/12/15 03:35:19;;;;;;;7.50;5.90;;;6.70;99.90;;;;;;5113992;28;20170;-71
2023/12/15 03:37:45;;;;;;;7.90;6.60;;;6.80;99.90;;;;;;5113823;28;20176;-70
2023/12/15 03:40:11;;;;;;;7.13;6.43;;;6.80;99.90;;;;;;5113741;28;20189;-70
2023/12/15 03:42:37;;;;;;;8.53;6.27;;;6.90;99.90;;;;;;5112592;28;20423;-71
2023/12/15 03:45:03;;;;;;;6.57;5.50;;;6.90;99.90;;;;;;5113779;28;20419;-70
2023/12/15 03:47:29;;;;;;;10.00;5.87;;;6.80;99.90;;;;;;5114000;28;20194;-71
2023/12/15 03:49:55;;;;;;;9.63;5.20;;;7.00;99.90;;;;;;5113622;28;20404;-71
2023/12/15 03:52:20;;;;;;;6.80;5.90;;;7.10;99.90;;;;;;5113574;28;20277;-70
2023/12/15 03:54:46;;;;;;;7.87;6.07;;;7.20;99.90;;;;;;5113637;28;20188;-71
2023/12/15 03:57:11;;;;;;;8.07;6.30;;;7.20;99.90;;;;;;5113547;28;20308;-71
2023/12/15 03:59:40;;;;;;;6.43;5.70;;;7.10;99.90;;;;;;5113535;28;20283;-71
2023/12/15 04:02:06;;;;;;;6.80;6.00;;;7.10;99.90;;;;;;5113526;28;20212;-71
2023/12/15 04:04:34;;;;;;;8.30;6.47;;;7.20;99.90;;;;;;5113632;28;20436;-70
2023/12/15 04:07:00;;;;;;;8.30;6.30;;;7.20;99.90;;;;;;5113436;28;20650;-70
2023/12/15 04:09:26;;;;;;;7.33;5.30;;;7.20;99.90;;;;;;5113364;28;20406;-71
2023/12/15 04:11:51;;;;;;;6.80;5.83;;;7.30;99.90;;;;;;5113335;28;20196;-70
2023/12/15 04:14:17;;;;;;;6.83;6.13;;;7.10;99.90;;;;;;5113946;28;20255;-71
2023/12/15 04:16:43;;;;;;;8.77;5.60;;;7.20;99.90;;;;;;5113338;28;20180;-70
2023/12/15 04:19:09;;;;;;;7.07;5.90;;;7.30;99.90;;;;;;5113560;28;20448;-73
2023/12/15 04:21:34;;;;;;;10.07;6.70;;;7.30;99.90;;;;;;5113653;28;20673;-72
2023/12/15 04:24:00;;;;;;;6.83;5.73;;;7.40;99.90;;;;;;5113361;28;20650;-73
2023/12/15 04:26:25;;;;;;;7.00;5.47;;;7.30;99.90;;;;;;5113293;28;20248;-72
2023/12/15 04:28:51;;;;;;;6.60;5.10;;;7.30;99.90;;;;;;5113552;28;20207;-71
2023/12/15 04:31:17;;;;;;;5.87;5.27;;;7.40;99.90;;;;;;5113972;28;20209;-72
2023/12/15 04:33:42;;;;;;;7.83;6.30;;;7.30;99.90;;;;;;5112313;28;20448;-72
2023/12/15 04:36:08;;;;;;;7.53;6.00;;;7.40;99.90;;;;;;5113230;28;20295;-68
2023/12/15 04:38:35;;;;;;;6.10;5.40;;;7.20;99.90;;;;;;5113476;28;20542;-68
2023/12/15 04:41:00;;;;;;;7.50;6.60;;;7.10;99.90;;;;;;5113007;28;20460;-69
2023/12/15 04:43:26;;;;;;;5.37;4.87;;;7.10;99.90;;;;;;5113049;28;20423;-69
2023/12/15 04:45:51;;;;;;;7.30;6.00;;;7.00;99.90;;;;;;5113174;28;20174;-68
2023/12/15 04:48:17;;;;;;;6.87;5.63;;;7.00;99.90;;;;;;5113089;28;20172;-67
2023/12/15 04:50:42;;;;;;;7.57;5.13;;;7.10;99.90;;;;;;5113018;28;20617;-68
2023/12/15 04:53:08;;;;;;;7.30;5.47;;;7.10;99.90;;;;;;5112997;28;20589;-68
2023/12/15 04:55:33;;;;;;;7.10;5.83;;;7.10;99.90;;;;;;5115818;28;20180;-67
2023/12/15 04:58:00;;;;;;;7.83;6.40;;;7.10;99.90;;;;;;5115661;28;20542;-69
2023/12/15 05:00:26;;;;;;;9.10;5.93;;;7.10;99.90;;;;;;5117187;28;20219;-69
2023/12/15 05:02:51;;;;;;;6.10;5.00;;;7.10;99.90;;;;;;5116379;28;20475;-69
2023/12/15 05:05:18;;;;;;;5.40;4.90;;;7.20;99.90;;;;;;5116864;28;20245;-69
2023/12/15 05:07:44;;;;;;;6.90;5.40;;;7.10;99.90;;;;;;5112848;28;20176;-71
2023/12/15 05:10:10;;;;;;;5.13;4.63;;;7.20;99.90;;;;;;5107496;28;20420;-70
2023/12/15 05:12:37;;;;;;;5.70;4.67;;;7.20;99.90;;;;;;5106964;28;20445;-70
2023/12/15 05:15:04;;;;;;;8.00;6.33;;;7.20;99.90;;;;;;5107226;28;20938;-70
2023/12/15 05:17:30;;;;;;;5.33;4.50;;;7.30;99.90;;;;;;5107582;28;20422;-70
2023/12/15 05:19:56;;;;;;;6.90;5.70;;;7.30;99.90;;;;;;5106997;28;20461;-70
2023/12/15 05:22:21;;;;;;;5.97;5.20;;;7.40;99.90;;;;;;5106829;28;20503;-71
2023/12/15 05:24:47;;;;;;;5.80;5.20;;;7.50;99.90;;;;;;5107089;28;20203;-71
2023/12/15 05:27:12;;;;;;;6.77;4.87;;;7.50;99.90;;;;;;5088609;28;20176;-70
2023/12/15 05:29:44;;;;;;;6.00;5.40;;;7.50;99.90;;;;;;5088626;28;20179;-71
2023/12/15 05:32:10;;;;;;;6.43;5.73;;;7.30;99.90;;;;;;5114035;28;20226;-70
2023/12/15 05:34:36;;;;;;;8.73;5.77;;;7.40;99.90;;;;;;5116010;27;20411;-70
2023/12/15 05:37:01;;;;;;;7.10;6.07;;;7.40;99.90;;;;;;5107102;28;20239;-70
2023/12/15 05:39:27;;;;;;;6.87;5.70;;;7.40;99.90;;;;;;5106984;28;20295;-70
2023/12/15 05:41:53;;;;;;;6.10;5.50;;;7.30;99.90;;;;;;5106898;28;20325;-70
2023/12/15 05:44:18;;;;;;;6.70;5.60;;;7.30;99.90;;;;;;5111991;28;20180;-69
2023/12/15 05:46:44;;;;;;;7.33;6.20;;;7.30;99.90;;;;;;5116682;28;20170;-68
2023/12/15 05:49:10;;;;;;;7.87;6.20;;;7.40;99.90;;;;;;5115709;28;20517;-69
2023/12/15 05:51:36;;;;;;;7.43;6.30;;;7.40;99.90;;;;;;5116055;28;20225;-71
2023/12/15 05:54:02;;;;;;;9.00;6.50;;;7.40;99.90;;;;;;5116473;28;20930;-69
2023/12/15 05:56:27;;;;;;;7.60;5.90;;;7.40;99.90;;;;;;5118471;28;20507;-69
2023/12/15 05:58:53;;;;;;;7.87;6.70;;;7.40;99.90;;;;;;5115132;28;20187;-70
2023/12/15 06:01:19;;;;;;;8.67;7.03;;;7.40;99.90;;;;;;5115973;28;20551;-69
2023/12/15 06:03:44;;;;;;;7.90;6.67;;;7.50;99.90;;;;;;5115926;28;20569;-71
2023/12/15 06:06:13;;;;;;;8.60;6.33;;;7.50;99.90;;;;;;5115670;28;20171;-69
2023/12/15 06:08:38;;;;;;;7.50;6.50;;;7.50;99.90;;;;;;5115712;28;20642;-70
2023/12/15 06:11:04;;;;;;;8.60;7.40;;;7.50;99.90;;;;;;5115617;28;20428;-69
2023/12/15 06:13:30;;;;;;;8.17;6.67;;;7.60;99.90;;;;;;5115772;28;20176;-69
2023/12/15 06:15:55;;;;;;;7.50;6.40;;;7.60;99.90;;;;;;5115443;28;20167;-69
2023/12/15 06:18:21;;;;;;;8.37;6.37;;;7.50;99.90;;;;;;5115525;28;20220;-69
2023/12/15 06:20:46;;;;;;;7.40;6.43;;;7.40;99.90;;;;;;5115271;28;20199;-70
2023/12/15 06:23:12;;;;;;;6.40;5.80;;;7.50;99.90;;;;;;5115977;28;20160;-70
2023/12/15 06:25:38;;;;;;;7.23;6.50;;;7.60;99.90;;;;;;5125443;27;20173;-69
2023/12/15 06:28:07;;;;;;;8.23;7.03;;;7.60;99.90;;;;;;5134424;27;20412;-69
2023/12/15 06:30:32;;;;;;;6.20;5.60;;;7.60;99.90;;;;;;5135695;27;20198;-69
2023/12/15 06:32:58;;;;;;;8.47;6.73;;;7.70;99.90;;;;;;5113741;27;20491;-68
2023/12/15 06:35:23;;;;;;;6.57;5.90;;;7.80;99.90;;;;;;5094871;28;20168;-68
2023/12/15 06:37:50;;;;;;;9.40;7.20;;;7.80;99.90;;;;;;5109909;28;20207;-68
2023/12/15 06:40:16;;;;;;;8.00;7.17;;;7.60;99.90;;;;;;5114803;28;20195;-69
2023/12/15 06:42:41;;;;;;;7.87;7.07;;;7.40;99.90;;;;;;5114605;28;20490;-67
2023/12/15 06:45:08;;;;;;;7.93;6.50;;;7.50;99.90;;;;;;5114876;28;20185;-68
2023/12/15 06:47:36;;;;;;;10.90;7.50;;;7.60;99.90;;;;;;5114718;28;20165;-68
2023/12/15 06:50:02;;;;;;;7.50;5.93;;;7.70;99.90;;;;;;5115010;28;20409;-68
2023/12/15 06:52:27;;;;;;;8.40;7.50;;;7.70;99.90;;;;;;5114812;28;20484;-69
2023/12/15 06:54:53;;;;;;;7.53;6.03;;;7.70;99.90;;;;;;5113197;28;20183;-69
2023/12/15 06:57:18;;;;;;;9.23;6.37;;;7.80;99.90;;;;;;5114606;28;20179;-69
2023/12/15 06:59:44;;;;;;;6.30;5.70;;;7.60;99.90;;;;;;5114760;28;20599;-68
2023/12/15 07:02:09;;;;;;;9.27;7.03;;;7.60;99.90;;;;;;5114286;28;20187;-69
2023/12/15 07:04:35;;;;;;;6.23;5.63;;;7.50;99.90;;;;;;5114495;28;20155;-69
2023/12/15 07:07:01;;;;;;;6.73;6.03;;;7.30;99.90;;;;;;5114776;28;20243;-68
2023/12/15 07:09:26;;;;;;;7.60;6.80;;;7.30;99.90;;;;;;5114361;28;20167;-69
2023/12/15 07:11:52;;;;;;;7.33;6.40;;;7.40;99.90;;;;;;5114220;28;20236;-68
2023/12/15 07:14:17;;;;;;;6.70;6.00;;;7.40;99.90;;;;;;5114310;28;20269;-68
2023/12/15 07:16:43;;;;;;;7.43;6.50;;;7.60;99.90;;;;;;5113795;28;20254;-69
2023/12/15 07:19:08;;;;;;;7.27;6.20;;;7.60;99.90;;;;;;5114447;28;20237;-69
2023/12/15 07:21:34;;;;;;;10.27;6.60;;;7.60;99.90;;;;;;5114487;28;20180;-71
2023/12/15 07:24:00;;;;;;;6.70;5.83;;;7.60;99.90;;;;;;5114328;28;20646;-69
2023/12/15 07:26:25;;;;;;;8.43;7.53;;;7.60;99.90;;;;;;5116942;28;20161;-69
2023/12/15 07:28:51;;;;;;;8.53;6.47;;;7.60;99.90;;;;;;5114255;28;20248;-69
2023/12/15 07:31:16;;;;;;;7.80;7.00;;;7.50;99.90;;;;;;5095523;28;20697;-70
2023/12/15 07:33:42;;;;;;;6.73;6.10;;;7.60;99.90;;;;;;5108322;28;20325;-68
2023/12/15 07:36:08;;;;;;;7.37;5.90;;;7.60;99.90;;;;;;5123774;27;20645;-69
2023/12/15 07:38:34;;;;;;;7.47;6.47;;;7.70;99.90;;;;;;5106394;27;20181;-69
2023/12/15 07:40:59;;;;;;;7.87;7.07;;;7.70;99.90;;;;;;5125510;27;20465;-70
2023/12/15 07:43:25;;;;;;;7.17;6.30;;;7.60;99.90;;;;;;5098723;28;20169;-70
2023/12/15 07:45:50;;;;;;;9.77;7.90;;;7.60;99.90;;;;;;5095491;28;20217;-70
2023/12/15 07:48:16;;;;;;;6.70;5.97;;;7.60;99.90;;;;;;5114409;28;20548;-70
2023/12/15 07:50:42;;;;;;;8.13;7.13;;;7.50;99.90;;;;;;5129355;28;20167;-73
2023/12/15 07:53:08;;;;;;;7.70;6.90;;;7.60;99.90;;;;;;5123672;28;20408;-73
2023/12/15 07:55:33;;;;;;;8.67;7.77;;;7.50;99.90;;;;;;5113586;28;20192;-73
2023/12/15 07:57:59;;;;;;;10.67;7.37;;;7.60;99.90;;;;;;5114157;28;20169;-72
2023/12/15 08:00:24;;;;;;;7.67;6.83;;;7.60;99.90;;;;;;5113410;28;20674;-73
2023/12/15 08:02:50;;;;;;;7.83;7.03;;;7.70;99.90;;;;;;5113304;28;20180;-73
2023/12/15 08:05:18;;;;;;;8.60;6.60;;;7.70;99.90;;;;;;5113340;28;20164;-73
2023/12/15 08:07:43;;;;;;;9.23;6.70;;;7.90;99.90;;;;;;5113541;28;20166;-72
2023/12/15 08:10:09;;;;;;;8.67;6.90;;;8.00;99.90;;;;;;5113406;28;20421;-72
2023/12/15 08:12:35;;;;;;;9.90;8.90;;;7.90;99.90;;;;;;5113299;28;20668;-72
2023/12/15 08:15:00;;;;;;;7.73;7.00;;;7.90;99.90;;;;;;5113290;28;20172;-72
2023/12/15 08:17:26;;;;;;;10.70;8.50;;;7.80;99.90;;;;;;5114238;28;20641;-72
2023/12/15 08:19:52;;;;;;;8.03;7.23;;;7.90;99.90;;;;;;5113612;28;20198;-72
2023/12/15 08:22:18;;;;;;;11.30;8.57;;;8.10;99.90;;;;;;5113441;28;20429;-75
2023/12/15 08:24:43;;;;;;;10.03;8.53;;;8.10;99.90;;;;;;5114113;28;20525;-72
2023/12/15 08:27:09;;;;;;;8.90;7.93;;;8.10;99.90;;;;;;5113895;28;20165;-73
2023/12/15 08:29:35;;;;;;;9.50;8.53;;;8.00;99.90;;;;;;5116990;28;20576;-71
2023/12/15 08:32:00;;;;;;;8.90;7.60;;;8.10;99.90;;;;;;5117355;28;20208;-74
2023/12/15 08:34:26;;;;;;;7.97;7.17;;;8.20;99.90;;;;;;5117605;28;20559;-72
2023/12/15 08:36:52;;;;;;;8.90;8.00;;;8.30;99.90;;;;;;5117099;28;20221;-72
2023/12/15 08:39:18;;;;;;;12.03;8.20;;;8.30;99.90;;;;;;5117251;28;20451;-72
2023/12/15 08:41:43;;;;;;;9.53;8.50;;;8.20;99.90;;;;;;5116198;28;20984;-72
2023/12/15 08:44:09;;;;;;;14.20;9.30;;;8.00;99.90;;;;;;5116668;28;20675;-72
2023/12/15 08:46:35;;;;;;;10.30;8.70;;;8.00;99.90;;;;;;5115772;28;20550;-71
2023/12/15 08:49:01;;;;;;;9.53;8.63;;;8.20;99.90;;;;;;5115701;28;20173;-71
2023/12/15 08:51:27;;;;;;;12.93;7.83;;;8.30;99.90;;;;;;5116968;28;20184;-71
2023/12/15 08:53:53;;;;;;;9.47;8.47;;;8.30;99.90;;;;;;5117048;28;20399;-73
2023/12/15 08:56:18;;;;;;;13.23;9.27;;;8.20;99.90;;;;;;5117058;28;20767;-72
2023/12/15 08:58:44;;;;;;;11.43;9.90;;;8.30;99.90;;;;;;5116910;28;20161;-72
2023/12/15 09:01:09;;;;;;;9.30;8.40;;;8.40;99.90;;;;;;5116395;28;20201;-72
2023/12/15 09:03:36;;;;;;;11.17;9.77;;;8.30;99.90;;;;;;5116895;28;20201;-72
2023/12/15 09:06:02;;;;;;;12.47;9.20;;;8.00;99.90;;;;;;5115567;28;20176;-72
2023/12/15 09:08:27;;;;;;;10.17;8.73;;;8.00;99.90;;;;;;5117147;28;20409;-72
2023/12/15 09:10:53;;;;;;;9.70;8.70;;;8.10;99.90;;;;;;5116972;28;20193;-74
2023/12/15 09:13:19;;;;;;;12.90;9.20;;;8.40;99.90;;;;;;5116838;28;20250;-73
2023/12/15 09:15:44;;;;;;;10.87;9.33;;;8.50;99.90;;;;;;5116856;28;20168;-73
2023/12/15 09:18:10;;;;;;;9.30;8.30;;;8.40;99.90;;;;;;5098377;28;20225;-73
2023/12/15 09:20:35;;;;;;;9.77;8.40;;;8.20;99.90;;;;;;5116905;28;20197;-73
2023/12/15 09:23:09;;;;;;;10.47;8.23;;;8.20;99.90;;;;;;5116632;28;20175;-71
2023/12/15 09:25:34;;;;;;;10.60;8.20;;;8.20;99.90;;;;;;5116346;28;20579;-72
2023/12/15 09:28:02;;;;;;;9.93;8.23;;;8.30;99.90;;;;;;5116370;28;20487;-73
2023/12/15 09:30:28;;;;;;;13.23;9.83;;;8.40;99.90;;;;;;5116755;28;20486;-72
2023/12/15 09:32:53;;;;;;;12.57;10.13;;;8.20;99.90;;;;;;5116128;28;20962;-72
2023/12/15 09:35:19;;;;;;;16.30;9.60;;;8.20;99.90;;;;;;5116577;28;20222;-72
2023/12/15 09:37:44;;;;;;;10.10;9.03;;;8.40;99.90;;;;;;5116620;28;20183;-73
2023/12/15 09:40:11;;;;;;;11.00;9.23;;;8.40;99.90;;;;;;5115620;28;20229;-72
2023/12/15 09:42:36;;;;;;;11.30;9.43;;;8.60;99.90;;;;;;5116007;28;20535;-73
2023/12/15 09:45:02;;;;;;;10.63;9.50;;;8.70;99.90;;;;;;5114755;28;20461;-71
2023/12/15 09:47:29;;;;;;;13.57;8.50;;;8.80;99.90;;;;;;5115332;28;20166;-72
2023/12/15 09:50:02;;;;;;;9.60;7.90;;;8.60;99.90;;;;;;5116485;28;20168;-72
2023/12/15 09:52:34;;;;;;;10.80;9.70;;;8.80;99.90;;;;;;5116055;28;20807;-72
2023/12/15 09:55:00;;;;;;;10.90;9.03;;;8.90;99.90;;;;;;5116172;28;20805;-73
2023/12/15 09:57:26;;;;;;;9.83;8.83;;;8.80;99.90;;;;;;5116103;27;20410;-72
2023/12/15 09:59:53;;;;;;;15.20;11.67;;;8.90;99.90;;;;;;5115533;28;20456;-72
2023/12/15 10:02:19;;;;;;;11.80;10.50;;;8.90;99.90;;;;;;5115585;28;20957;-73
2023/12/15 10:04:45;;;;;;;11.80;9.90;;;8.90;99.90;;;;;;5115738;28;20403;-72
2023/12/15 10:07:11;;;;;;;10.63;9.33;;;9.10;99.90;;;;;;5116145;28;20171;-73
2023/12/15 10:09:38;;;;;;;9.80;8.80;;;9.20;99.90;;;;;;5116950;28;20410;-73
2023/12/15 10:12:08;;;;;;;10.37;8.83;;;9.20;99.90;;;;;;5115844;28;20270;-73
2023/12/15 10:14:38;;;;;;;7.90;7.10;;;9.30;99.90;;;;;;5114389;28;20497;-72
2023/12/15 10:17:11;;;;;;;9.60;8.60;;;9.50;99.90;;;;;;5115434;28;20410;-72
2023/12/15 10:19:37;;;;;;;8.40;7.57;;;9.40;99.90;;;;;;5115723;28;20439;-73
2023/12/15 10:22:04;;;;;;;12.73;8.50;;;9.00;99.90;;;;;;5115697;28;20477;-72
2023/12/15 10:24:32;;;;;;;9.27;8.37;;;8.90;99.90;;;;;;5115382;28;20411;-76
2023/12/15 10:27:00;;;;;;;9.27;8.33;;;9.00;99.90;;;;;;5114873;28;20406;-76
2023/12/15 10:29:25;;;;;;;9.70;7.63;;;8.90;99.90;;;;;;5115786;28;20432;-76
2023/12/15 10:31:51;;;;;;;12.13;9.17;;;8.90;99.90;;;;;;5115456;22;20498;-69
2023/12/15 10:34:18;;;;;;;11.20;9.80;;;9.20;99.90;;;;;;5035065;28;20174;-70
2023/12/15 10:36:47;;;;;;;9.10;7.20;;;9.20;99.90;;;;;;5034642;28;20165;-69
2023/12/15 10:39:14;;;;;;;10.57;9.27;;;9.30;99.90;;;;;;5034519;28;20392;-69
2023/12/15 10:41:40;;;;;;;10.33;8.80;;;9.30;99.90;;;;;;5033851;28;20424;-69
2023/12/15 10:44:06;;;;;;;12.37;8.70;;;9.30;99.90;;;;;;5034656;28;20753;-70
2023/12/15 10:46:33;;;;;;;9.73;8.10;;;9.60;99.90;;;;;;5034374;28;20507;-69
2023/12/15 10:48:59;;;;;;;9.27;8.33;;;9.90;99.90;;;;;;5027359;28;20407;-70
2023/12/15 10:51:26;;;;;;;8.67;7.87;;;10.10;99.90;;;;;;5014492;28;20416;-72
2023/12/15 10:53:53;;;;;;;8.90;8.00;;;10.30;99.90;;;;;;5034088;28;20413;-70
2023/12/15 10:56:19;;;;;;;8.47;7.33;;;10.40;99.90;;;;;;5031390;28;20472;-70
2023/12/15 10:58:45;;;;;;;8.57;7.57;;;10.10;99.90;;;;;;5034383;28;20824;-69
2023/12/15 11:01:12;;;;;;;8.43;7.53;;;9.80;99.90;;;;;;5034064;28;20538;-70
2023/12/15 11:03:39;;;;;;;8.13;6.90;;;10.10;99.90;;;;;;5015291;28;20414;-70
2023/12/15 11:06:05;;;;;;;8.93;7.90;;;9.70;99.90;;;;;;5014540;28;20434;-71
2023/12/15 11:08:31;;;;;;;8.30;7.50;;;9.50;99.90;;;;;;5014287;28;20409;-68
2023/12/15 11:10:57;;;;;;;9.30;6.80;;;9.60;99.90;;;;;;5029455;28;20415;-70
2023/12/15 11:13:59;;;;;;;10.53;8.03;;;9.60;99.90;;;;;;5030809;28;20854;-70
2023/12/15 11:16:30;;;;;;;8.20;7.13;;;9.80;99.90;;;;;;5034065;28;20221;-70
2023/12/15 11:18:59;;;;;;;7.50;5.73;;;10.30;99.90;;;;;;5033878;28;20444;-70
2023/12/15 11:21:26;;;;;;;8.57;7.67;;;10.30;99.90;;;;;;5033538;28;20837;-71
2023/12/15 11:24:04;;;;;;;7.70;6.83;;;10.30;99.90;;;;;;5014258;28;20781;-70
2023/12/15 11:26:32;;;;;;;7.23;5.70;;;10.10;99.90;;;;;;5014392;28;20464;-70
2023/12/15 11:29:11;;;;;;;7.60;6.87;;;10.10;99.90;;;;;;5013873;28;20906;-70
2023/12/15 11:31:36;;;;;;;7.20;6.50;;;10.30;99.90;;;;;;5018412;28;20811;-70
2023/12/15 11:34:03;;;;;;;7.50;6.67;;;10.40;99.90;;;;;;5053582;28;20386;-70
2023/12/15 11:36:51;;;;;;;7.27;6.53;;;10.30;99.90;;;;;;5053456;28;20198;-70
2023/12/15 11:39:17;;;;;;;6.87;6.17;;;9.90;99.90;;;;;;5042055;28;20405;-70
2023/12/15 11:41:42;;;;;;;8.20;6.40;;;10.00;99.90;;;;;;5036107;28;20437;-69
2023/12/15 11:44:08;;;;;;;7.83;6.90;;;9.80;99.90;;;;;;5053817;28;20633;-70
2023/12/15 11:46:33;;;;;;;6.43;5.63;;;10.00;99.90;;;;;;5053422;28;20220;-70
2023/12/15 11:49:00;;;;;;;6.17;5.57;;;9.80;99.90;;;;;;5033637;28;20175;-69
2023/12/15 11:51:28;;;;;;;8.40;5.50;;;9.70;99.90;;;;;;5032440;28;20168;-69
2023/12/15 11:53:55;;;;;;;6.70;6.00;;;9.70;99.90;;;;;;5051911;28;20433;-69
2023/12/15 11:56:20;;;;;;;6.80;5.70;;;9.60;99.90;;;;;;5052992;28;20798;-70
2023/12/15 11:58:46;;;;;;;6.20;5.33;;;9.60;99.90;;;;;;5053663;28;20396;-70
2023/12/15 12:01:14;;;;;;;4.93;4.43;;;9.40;99.90;;;;;;5052864;28;20189;-70
2023/12/15 12:03:40;;;;;;;8.10;6.17;;;9.20;99.90;;;;;;5034182;28;20776;-69
2023/12/15 12:06:08;;;;;;;9.27;7.33;;;9.20;99.90;;;;;;5033374;28;20409;-70
2023/12/15 12:08:37;;;;;;;7.00;5.13;;;9.20;99.90;;;;;;5033364;28;20237;-71
2023/12/15 12:11:04;;;;;;;5.53;5.03;;;9.30;99.90;;;;;;5033241;28;20919;-70
2023/12/15 12:13:35;;;;;;;5.97;4.70;;;9.40;99.90;;;;;;5049722;28;20520;-70
2023/12/15 12:16:01;;;;;;;5.00;4.50;;;9.50;99.90;;;;;;5053548;28;20453;-71
2023/12/15 12:18:28;;;;;;;4.57;4.17;;;9.60;99.90;;;;;;5052887;28;20405;-70
2023/12/15 12:21:05;;;;;;;5.30;4.80;;;9.70;99.90;;;;;;5052404;28;20848;-70
2023/12/15 12:23:31;;;;;;;7.87;4.90;;;9.70;99.90;;;;;;5035590;28;20955;-70
2023/12/15 12:25:58;;;;;;;5.57;5.00;;;9.50;99.90;;;;;;5032901;28;20404;-69
2023/12/15 12:28:44;;;;;;;6.00;5.20;;;9.60;99.90;;;;;;5032650;28;20402;-69
2023/12/15 12:31:09;;;;;;;6.90;4.97;;;9.70;99.90;;;;;;5048697;28;20396;-69
2023/12/15 12:33:35;;;;;;;5.07;4.43;;;9.50;99.90;;;;;;5049928;28;20446;-70
2023/12/15 12:36:00;;;;;;;5.03;4.53;;;9.30;99.90;;;;;;5052762;28;20205;-71
2023/12/15 12:38:26;;;;;;;5.37;4.87;;;9.40;99.90;;;;;;5049659;28;20236;-71
2023/12/15 12:40:52;;;;;;;6.70;4.83;;;9.50;99.90;;;;;;5043993;28;20279;-69
2023/12/15 12:43:17;;;;;;;5.13;4.40;;;9.40;99.90;;;;;;5038340;28;20664;-70
2023/12/15 12:45:43;;;;;;;4.80;4.40;;;9.30;99.90;;;;;;5029979;28;20230;-70
2023/12/15 12:48:08;;;;;;;5.70;5.10;;;9.60;99.90;;;;;;5003858;28;20677;-69
2023/12/15 12:50:34;;;;;;;4.97;4.47;;;9.90;99.90;;;;;;5030538;28;20548;-69